x

Northwestern Hawaii Two - 190nm Nw Of Kauai Is, Hi (51101) Wave Buoy

11:50pm - Thu 23rd Feb 2017 All times are HST. -10 hours from GMT.

  • Sig Wave height 6.2ft
  • Swell Direction
  • Peak Period 12s
  • Average Period 6s
  • Wind
    18mph, 22mph gusts
  • Sea Temp 73°f
  • Air Temp 69°f
  • Sea Pressure 1022.9mb
  • Northwestern Hawaii Two - 190nm Nw Of Kauai Is, Hi
  • Northwestern Hawaii Two - 190nm Nw Of Kauai Is, Hi

More Historic Weather Station data

Upgrade to MSW Pro to gain access to the past 30 days of data for over 8000 Wavebouys and Weather Stations around the globe.

Join Pro

Comparision Forecast

View Surf forecast
   
Thu 02/23 11:50pm 6ft 12s 6s 18 22 mph 1022.9mb 73f 69f
10:50pm 5.5ft 13s 6s 16 20 mph 1023.5mb 73f 69f
9:50pm 6ft 12s 6s 18 20 mph 1023.2mb 73f 69f
8:50pm 6ft 13s 6s 18 20 mph 1023mb 73f 69f
7:50pm 6ft 8s 6s 18 20 mph 1022.7mb 73f 69f
6:50pm 6ft 8s 7s 16 20 mph 1022.6mb 73f 69f
5:50pm 6ft 14s 7s 13 16 mph 1022.6mb 73f 70f
4:50pm 6ft 8s 7s 11 13 mph 1022.2mb 73f 70f
2:50pm 6ft 14s 7s 16 18 mph 1022.3mb 73f 70f
1:50pm 6ft 14s 7s 13 16 mph 1023.2mb 73f 70f
12:50pm 6.5ft 13s 7s 13 18 mph 1023.7mb 73f 70f
11:50am 6.5ft 15s 7s 13 18 mph 1024.7mb 73f 70f
10:50am 7ft 14s 7s 13 18 mph 1025.5mb 73f 71f
9:50am 7ft 14s 7s 11 16 mph 1025.9mb 73f 70f
8:50am 8ft 15s 8s 13 16 mph 1025.7mb 73f 70f
7:50am 7.5ft 15s 7s 16 18 mph 1025.1mb 73f 70f
6:50am 7ft 14s 7s 16 20 mph 1024.7mb 73f 70f
5:50am 8ft 15s 8s 16 20 mph 1024.4mb 73f 70f
4:50am 7ft 15s 7s 16 20 mph 1024.5mb 73f 70f
3:50am 8ft 14s 7s 16 18 mph 1024.6mb 73f 70f
2:50am 8ft 15s 7s 13 16 mph 1024.9mb 73f 70f
1:50am 7.5ft 14s 7s 18 20 mph 1025.5mb 73f 70f
12:50am 7ft 14s 7s 16 18 mph 1026.2mb 73f 70f
Wed 02/22 11:50pm 7ft 15s 7s 16 18 mph 1026.5mb 73f 71f
10:50pm 7ft 14s 7s 18 22 mph 1026.7mb 73f 71f
9:50pm 7.5ft 13s 7s 18 22 mph 1026.5mb 73f 71f
8:50pm 8ft 14s 7s 18 20 mph 1026.3mb 73f 71f
7:50pm 7ft 13s 6s 16 20 mph 1025.6mb 73f 71f
6:50pm 7.5ft 14s 7s 18 20 mph 1025.3mb 73f 71f
5:50pm 7.5ft 14s 7s 16 20 mph 1024.9mb 73f 71f
4:50pm 7ft 14s 7s 18 20 mph 1024.4mb 73f 71f
3:50pm 7.5ft 14s 7s 18 20 mph 1024.2mb 73f 71f
2:50pm 7.5ft 15s 7s 18 22 mph 1024.1mb 73f 71f
1:50pm 8ft 15s 7s 18 22 mph 1025mb 73f 71f
12:50pm 7ft 15s 7s 18 20 mph 1026mb 73f 71f
11:50am 7.5ft 15s 6s 18 20 mph 1027.1mb 72f 71f
10:50am 7ft 14s 6s 18 22 mph 1027.6mb 72f 71f
9:50am 7ft 15s 6s 18 22 mph 1027.3mb 72f 72f
8:50am 7.5ft 15s 7s 16 20 mph 1027.3mb 72f 71f
7:50am 7ft 15s 6s 20 22 mph 1026.8mb 72f 71f
6:50am 7ft 8s 6s 18 22 mph 1026.9mb 72f 71f
5:50am 6.5ft 7s 6s 18 22 mph 1026.7mb 72f 71f
4:50am 6ft 8s 6s 20 22 mph 1025.8mb 72f 71f
3:50am 7ft 8s 6s 20 25 mph 1025.9mb 72f 71f
2:50am 6.5ft 7s 6s 18 22 mph 1026.4mb 72f 71f
12:50am 6ft 8s 5s 20 22 mph 1027.7mb 72f 71f
Tue 02/21 11:50pm 6ft 8s 5s 22 25 mph 1027.5mb 72f 71f
10:50pm 6ft 6s 6s 20 22 mph 1028mb 72f 71f
9:50pm 6ft 10s 6s 18 22 mph 1027.7mb 72f 71f
8:50pm 5.5ft 8s 6s 20 22 mph 1027.5mb 72f 71f
7:50pm 6ft 10s 6s 18 22 mph 1027.1mb 72f 71f
6:50pm 5.5ft 9s 6s 18 22 mph 1026.5mb 72f 71f
5:50pm 5.5ft 9s 6s 18 22 mph 1026.1mb 73f 71f
4:50pm 5ft 10s 5s 18 20 mph 1026mb 73f 71f
3:50pm 6ft 9s 6s 18 22 mph 1025.8mb 73f 71f
2:50pm 5.5ft 11s 6s 18 20 mph 1026mb 73f 71f
1:50pm 5.5ft 9s 6s 18 22 mph 1026.3mb 73f 71f
12:50pm 6ft 10s 6s 13 18 mph 1026.9mb 73f 71f
11:50am 6ft 10s 6s 11 13 mph 1027.7mb 72f 70f
10:50am 6ft 9s 6s 16 18 mph 1027.8mb 72f 70f
9:50am 6ft 10s 6s 16 18 mph 1028mb 72f 69f
8:50am 6ft 10s 6s 18 22 mph 1027.1mb 72f 70f
7:50am 6ft 9s 6s 18 22 mph 1026.4mb 72f 69f
6:50am 6.5ft 9s 7s 13 16 mph 1026.2mb 72f 70f
5:50am 6ft 9s 6s 13 18 mph 1025.7mb 72f 70f
4:50am 6ft 10s 6s 16 18 mph 1025.9mb 72f 70f
3:50am 7ft 10s 7s 16 18 mph 1026.1mb 72f 70f
2:50am 6.5ft 9s 7s 11 13 mph 1026.3mb 72f 70f
1:50am 6.5ft 10s 6s 13 16 mph 1026.4mb 72f 71f
12:50am 7ft 10s 6s 16 18 mph 1026.4mb 72f 71f
Mon 02/20 11:50pm 7.5ft 10s 7s 18 22 mph 1025.8mb 72f 71f
10:50pm 7ft 10s 7s 16 18 mph 1026.6mb 72f 71f
9:50pm 7ft 11s 7s 13 18 mph 1026.7mb 72f 71f
8:50pm 7ft 11s 7s 13 18 mph 1026.2mb 73f 71f
7:50pm 7ft 11s 7s 13 18 mph 1025.8mb 73f 70f
6:50pm 7.5ft 11s 7s 16 18 mph 1025.1mb 73f 70f
5:50pm 7ft 11s 7s 13 16 mph 1024.6mb 73f 71f
4:50pm 8ft 11s 7s 16 18 mph 1024.2mb 73f 71f
3:50pm 8ft 11s 7s 16 20 mph 1023.8mb 73f 70f
2:50pm 8.5ft 11s 7s 18 20 mph 1024mb 73f 70f
1:50pm 8ft 11s 7s 18 22 mph 1024.7mb 73f 70f
12:50pm 8ft 12s 7s 20 25 mph 1025.6mb 73f 69f
11:50am 8ft 12s 7s 16 20 mph 1026.3mb 73f 70f